createdAt,value
2023-04-29T00:00:24.096Z,5.70
2023-04-29T00:02:56.273Z,5.66
2023-04-29T00:05:31.180Z,5.66
2023-04-29T00:08:03.978Z,5.69
2023-04-29T00:10:35.935Z,5.69
2023-04-29T00:13:10.261Z,5.63
2023-04-29T00:15:44.710Z,5.55
2023-04-29T00:18:16.330Z,5.50
2023-04-29T00:20:47.909Z,5.41
2023-04-29T00:23:19.645Z,5.36
2023-04-29T00:25:53.625Z,5.36
2023-04-29T00:28:25.537Z,5.36
2023-04-29T00:30:59.787Z,5.33
2023-04-29T00:33:31.597Z,5.26
2023-04-29T00:36:04.304Z,5.21
2023-04-29T00:38:36.758Z,5.20
2023-04-29T00:41:09.318Z,5.23
2023-04-29T00:43:40.968Z,5.26
2023-04-29T00:46:15.242Z,5.23
2023-04-29T00:48:49.779Z,5.21
2023-04-29T00:51:21.675Z,5.17
2023-04-29T00:53:54.160Z,5.17
2023-04-29T00:56:26.099Z,5.19
2023-04-29T00:58:58.931Z,5.22
2023-04-29T01:01:30.768Z,5.21
2023-04-29T01:04:03.199Z,5.17
2023-04-29T01:06:53.343Z,5.11
2023-04-29T01:09:27.846Z,5.13
2023-04-29T01:12:13.073Z,5.11
2023-04-29T01:14:53.673Z,5.14
2023-04-29T01:17:31.393Z,5.16
2023-04-29T01:20:04.768Z,5.17
2023-04-29T01:22:37.852Z,5.18
2023-04-29T01:25:10.128Z,5.19
2023-04-29T01:27:58.062Z,5.20
2023-04-29T01:30:51.396Z,5.18
2023-04-29T01:33:23.095Z,5.16
2023-04-29T01:38:49.338Z,5.16
2023-04-29T01:41:39.323Z,5.16
2023-04-29T01:44:20.570Z,5.16
2023-04-29T01:46:54.548Z,5.15
2023-04-29T01:49:29.884Z,5.10
2023-04-29T01:52:01.623Z,5.08
2023-04-29T01:54:36.750Z,5.09
2023-04-29T01:57:08.367Z,5.11
2023-04-29T01:59:41.085Z,5.18
2023-04-29T02:02:15.406Z,5.20
2023-04-29T02:04:47.365Z,5.23
2023-04-29T02:07:19.299Z,5.24
2023-04-29T02:09:51.254Z,5.24
2023-04-29T02:12:23.867Z,5.30
2023-04-29T02:14:56.073Z,5.33
2023-04-29T02:17:27.851Z,5.38
2023-04-29T02:19:59.622Z,5.40
2023-04-29T02:22:31.457Z,5.39
2023-04-29T02:25:07.122Z,5.42
2023-04-29T02:27:39.291Z,5.44
2023-04-29T02:30:11.685Z,5.43
2023-04-29T02:32:43.389Z,5.43
2023-04-29T02:35:15.155Z,5.38
2023-04-29T02:37:46.949Z,5.31
2023-04-29T02:40:18.580Z,5.30
2023-04-29T02:42:53.162Z,5.26
2023-04-29T02:45:27.254Z,5.19
2023-04-29T02:48:01.201Z,5.12
2023-04-29T02:50:33.321Z,5.15
2023-04-29T02:53:05.014Z,5.20
2023-04-29T02:55:36.766Z,5.25
2023-04-29T02:58:08.515Z,5.30
2023-04-29T03:00:45.541Z,5.29
2023-04-29T03:03:17.602Z,5.32
2023-04-29T03:05:49.528Z,5.34
2023-04-29T03:08:24.477Z,5.38
2023-04-29T03:10:56.335Z,5.42
2023-04-29T03:13:30.331Z,5.46
2023-04-29T03:16:02.214Z,5.51
2023-04-29T03:18:36.720Z,5.57
2023-04-29T03:21:09.000Z,5.60
2023-04-29T03:23:40.865Z,5.61
2023-04-29T03:26:15.698Z,5.64
2023-04-29T03:28:48.052Z,5.66
2023-04-29T03:31:24.614Z,5.65
2023-04-29T03:33:56.320Z,5.65
2023-04-29T03:36:28.218Z,5.66
2023-04-29T03:39:00.103Z,5.70
2023-04-29T03:41:34.814Z,5.72
2023-04-29T03:44:06.745Z,5.80
2023-04-29T03:46:38.494Z,5.84
2023-04-29T03:49:10.240Z,5.92
2023-04-29T03:51:42.062Z,5.99
2023-04-29T03:54:13.917Z,6.04
2023-04-29T03:56:45.641Z,6.06
2023-04-29T03:59:17.247Z,6.08
2023-04-29T04:01:49.010Z,6.17
2023-04-29T04:04:21.681Z,6.22
2023-04-29T04:06:53.549Z,6.24
2023-04-29T04:09:25.273Z,6.33
2023-04-29T04:11:56.880Z,6.45
2023-04-29T04:14:31.784Z,6.60
2023-04-29T04:17:03.422Z,6.67
2023-04-29T04:19:35.179Z,6.69
2023-04-29T04:22:13.277Z,6.71
2023-04-29T04:24:44.925Z,6.80
2023-04-29T04:27:16.535Z,6.86
2023-04-29T04:29:48.236Z,6.87
2023-04-29T04:32:19.909Z,6.98
2023-04-29T04:34:51.653Z,7.04
2023-04-29T04:37:23.415Z,7.09
2023-04-29T04:39:55.185Z,7.12
2023-04-29T04:42:27.014Z,7.12
2023-04-29T04:45:01.663Z,7.17
2023-04-29T04:47:33.404Z,7.25
2023-04-29T04:50:05.831Z,7.29
2023-04-29T04:52:37.592Z,7.39
2023-04-29T04:55:09.779Z,7.53
2023-04-29T04:57:41.643Z,7.58
2023-04-29T05:00:14.022Z,7.57
2023-04-29T05:02:45.952Z,7.61
2023-04-29T05:05:20.812Z,7.64
2023-04-29T05:07:52.443Z,7.64
2023-04-29T05:10:26.661Z,7.66
2023-04-29T05:13:00.288Z,7.69
2023-04-29T05:15:32.633Z,7.73
2023-04-29T05:18:04.344Z,7.59
2023-04-29T05:20:36.459Z,7.46
2023-04-29T05:23:09.031Z,7.42
2023-04-29T05:25:43.921Z,7.44
2023-04-29T05:28:18.708Z,7.46
2023-04-29T05:30:54.105Z,7.53
2023-04-29T05:33:25.843Z,7.57
2023-04-29T05:35:57.581Z,7.62
2023-04-29T05:38:34.119Z,7.69
2023-04-29T05:41:06.188Z,7.82
2023-04-29T05:43:37.848Z,7.90
2023-04-29T05:46:09.904Z,7.97
2023-04-29T05:48:41.610Z,8.01
2023-04-29T05:51:14.072Z,8.24
2023-04-29T05:53:45.788Z,8.52
2023-04-29T05:56:18.271Z,8.76
2023-04-29T05:58:50.457Z,8.88
2023-04-29T06:01:22.139Z,8.85
2023-04-29T06:03:56.944Z,8.86
2023-04-29T06:06:31.876Z,8.96
2023-04-29T06:09:08.545Z,9.07
2023-04-29T06:11:45.553Z,9.23
2023-04-29T06:14:17.575Z,9.40
2023-04-29T06:16:49.702Z,9.57
2023-04-29T06:19:21.318Z,9.75
2023-04-29T06:21:59.000Z,9.93
2023-04-29T06:24:31.059Z,10.17
2023-04-29T06:27:04.521Z,10.44
2023-04-29T06:29:38.071Z,10.80
2023-04-29T06:32:10.034Z,11.07
2023-04-29T06:34:41.916Z,11.27
2023-04-29T06:37:13.782Z,11.43
2023-04-29T06:39:45.528Z,11.57
2023-04-29T06:42:17.121Z,11.70
2023-04-29T06:44:48.823Z,11.74
2023-04-29T06:47:20.796Z,11.82
2023-04-29T06:49:53.556Z,12.09
2023-04-29T06:52:25.496Z,12.52
2023-04-29T06:54:57.167Z,13.00
2023-04-29T06:57:32.269Z,13.27
2023-04-29T07:00:07.481Z,13.80
2023-04-29T07:02:39.362Z,14.36
2023-04-29T07:05:11.627Z,14.93
2023-04-29T07:07:45.606Z,15.45
2023-04-29T07:10:22.700Z,15.90
2023-04-29T07:12:54.587Z,16.33
2023-04-29T07:15:30.675Z,16.45
2023-04-29T07:18:09.116Z,16.63
2023-04-29T07:20:40.801Z,16.79
2023-04-29T07:23:12.509Z,17.15
2023-04-29T07:25:44.308Z,17.56
2023-04-29T07:28:15.952Z,17.83
2023-04-29T07:30:47.598Z,18.20
2023-04-29T07:33:19.943Z,18.90
2023-04-29T07:35:51.804Z,19.11
2023-04-29T07:38:23.708Z,19.39
2023-04-29T07:40:55.529Z,19.47
2023-04-29T07:43:27.385Z,19.68
2023-04-29T07:45:59.073Z,19.97
2023-04-29T07:48:30.895Z,20.42
2023-04-29T07:51:02.700Z,20.41
2023-04-29T07:53:34.474Z,20.18
2023-04-29T07:56:07.825Z,20.24
2023-04-29T07:58:39.576Z,20.86
2023-04-29T08:01:12.466Z,21.31
2023-04-29T08:03:45.630Z,21.23
2023-04-29T08:06:20.899Z,20.65
2023-04-29T08:08:57.749Z,20.24
2023-04-29T08:11:29.468Z,20.55
2023-04-29T08:14:01.065Z,20.22
2023-04-29T08:16:33.075Z,19.34
2023-04-29T08:19:04.716Z,19.11
2023-04-29T08:21:36.653Z,18.72
2023-04-29T08:24:08.281Z,18.11
2023-04-29T08:26:41.927Z,18.01
2023-04-29T08:29:13.512Z,18.26
2023-04-29T08:31:48.188Z,18.89
2023-04-29T08:34:19.936Z,19.36
2023-04-29T08:36:51.479Z,19.51
2023-04-29T08:39:25.329Z,19.73
2023-04-29T08:41:58.062Z,19.65
2023-04-29T08:44:32.809Z,19.46
2023-04-29T08:47:05.286Z,19.62
2023-04-29T08:49:38.418Z,19.43
2023-04-29T08:52:10.356Z,19.19
2023-04-29T08:54:42.091Z,18.74
2023-04-29T08:57:14.799Z,18.34
2023-04-29T08:59:46.889Z,18.09
2023-04-29T09:02:21.692Z,17.80
2023-04-29T09:05:24.146Z,17.56
2023-04-29T09:08:03.577Z,17.34
2023-04-29T09:10:42.008Z,17.31
2023-04-29T09:13:27.810Z,17.32
2023-04-29T09:15:59.487Z,17.36
2023-04-29T09:18:46.872Z,17.52
2023-04-29T09:21:29.982Z,17.52
2023-04-29T09:24:03.600Z,17.62
2023-04-29T09:26:43.353Z,17.73
2023-04-29T09:29:18.420Z,18.10
2023-04-29T09:31:54.794Z,18.46
2023-04-29T09:34:37.492Z,18.65
2023-04-29T09:37:26.230Z,18.61
2023-04-29T09:40:01.523Z,18.84
2023-04-29T09:42:43.270Z,18.97
2023-04-29T09:45:33.539Z,19.15
2023-04-29T09:48:08.992Z,19.12
2023-04-29T09:50:45.132Z,19.29
2023-04-29T09:53:30.143Z,19.31
2023-04-29T09:56:03.905Z,19.29
2023-04-29T09:58:39.117Z,19.24
2023-04-29T10:01:13.453Z,19.57
2023-04-29T10:03:45.885Z,19.69
2023-04-29T10:06:19.178Z,19.85
2023-04-29T10:08:51.572Z,19.57
2023-04-29T10:11:23.724Z,19.20
2023-04-29T10:13:56.163Z,18.72
2023-04-29T10:16:32.107Z,18.37
2023-04-29T10:19:13.444Z,17.72
2023-04-29T10:21:45.446Z,17.21
2023-04-29T10:24:19.385Z,16.81
2023-04-29T10:26:53.524Z,16.57
2023-04-29T10:29:28.718Z,16.37
2023-04-29T10:32:02.825Z,16.36
2023-04-29T10:34:36.975Z,16.21
2023-04-29T10:37:11.484Z,16.18
2023-04-29T10:39:49.016Z,16.29
2023-04-29T10:42:46.508Z,16.29
2023-04-29T10:45:27.697Z,16.23
2023-04-29T10:48:06.414Z,16.27
2023-04-29T10:50:46.879Z,16.67
2023-04-29T10:53:23.794Z,17.45
2023-04-29T10:56:05.362Z,17.68
2023-04-29T10:58:47.150Z,17.58
2023-04-29T11:01:18.985Z,17.47
2023-04-29T11:03:56.111Z,17.62
2023-04-29T11:06:35.245Z,17.59
2023-04-29T11:09:21.804Z,17.43
2023-04-29T11:11:58.021Z,17.25
2023-04-29T11:14:43.654Z,17.11
2023-04-29T11:17:16.877Z,16.86
2023-04-29T11:19:51.361Z,16.64
2023-04-29T11:22:23.438Z,16.30
2023-04-29T11:25:00.823Z,16.08
2023-04-29T11:27:38.102Z,15.84
2023-04-29T11:30:13.871Z,15.71
2023-04-29T11:32:51.639Z,15.73
2023-04-29T11:35:25.673Z,15.69
2023-04-29T11:38:03.817Z,15.56
2023-04-29T11:40:35.689Z,15.41
2023-04-29T11:43:07.713Z,15.34
2023-04-29T11:45:47.369Z,15.37
2023-04-29T11:48:26.015Z,15.30
2023-04-29T11:51:00.037Z,15.20
2023-04-29T11:53:31.673Z,15.09
2023-04-29T11:56:03.326Z,15.09
2023-04-29T11:58:35.269Z,15.14
2023-04-29T12:01:07.310Z,15.21
2023-04-29T12:03:39.215Z,15.31
2023-04-29T12:06:14.118Z,15.40
2023-04-29T12:08:48.025Z,15.44
2023-04-29T12:11:20.389Z,15.50
2023-04-29T12:13:52.449Z,15.52
2023-04-29T12:16:24.564Z,15.55
2023-04-29T12:18:56.780Z,15.53
2023-04-29T12:21:28.775Z,15.52
2023-04-29T12:24:02.903Z,15.44
2023-04-29T12:26:35.286Z,15.39
2023-04-29T12:29:11.290Z,15.34
2023-04-29T12:31:43.681Z,15.31
2023-04-29T12:34:15.349Z,15.24
2023-04-29T12:36:49.220Z,15.23
2023-04-29T12:39:21.314Z,15.17
2023-04-29T12:41:58.425Z,15.05
2023-04-29T12:44:40.911Z,14.98
2023-04-29T12:47:13.897Z,14.88
2023-04-29T12:49:47.341Z,14.87
2023-04-29T12:52:19.152Z,14.86
2023-04-29T12:54:51.163Z,14.88
2023-04-29T12:57:25.309Z,14.82
2023-04-29T12:59:56.951Z,14.77
2023-04-29T13:02:28.855Z,14.71
2023-04-29T13:05:00.822Z,14.68
2023-04-29T13:07:32.610Z,14.62
2023-04-29T13:10:06.489Z,14.57
2023-04-29T13:12:38.604Z,14.52
2023-04-29T13:15:11.474Z,14.44
2023-04-29T13:17:43.052Z,14.44
2023-04-29T13:20:15.342Z,14.41
2023-04-29T13:22:49.223Z,14.44
2023-04-29T13:25:21.055Z,14.49
2023-04-29T13:27:52.990Z,14.46
2023-04-29T13:30:24.698Z,14.48
2023-04-29T13:33:01.262Z,14.50
2023-04-29T13:35:42.045Z,14.52
2023-04-29T13:38:14.299Z,14.52
2023-04-29T13:40:48.963Z,14.58
2023-04-29T13:43:32.979Z,14.57
2023-04-29T13:46:09.313Z,14.53
2023-04-29T14:07:07.332Z,14.15
2023-04-29T14:09:40.151Z,14.10
2023-04-29T14:12:11.803Z,14.11
2023-04-29T14:14:43.753Z,14.12
2023-04-29T14:17:15.323Z,14.10
2023-04-29T14:19:47.082Z,14.12
2023-04-29T14:22:18.899Z,14.15
2023-04-29T14:24:51.967Z,14.15
2023-04-29T14:27:24.168Z,14.17
2023-04-29T14:29:55.918Z,14.20
2023-04-29T14:32:27.581Z,14.25
2023-04-29T14:34:59.233Z,14.32
2023-04-29T14:37:30.875Z,14.39
2023-04-29T14:40:02.427Z,14.43
2023-04-29T14:42:34.085Z,14.39
2023-04-29T14:45:06.995Z,14.38
2023-04-29T14:47:39.040Z,14.37
2023-04-29T14:50:10.787Z,14.38
2023-04-29T14:52:42.550Z,14.39
2023-04-29T14:55:14.876Z,14.39
2023-04-29T14:57:46.850Z,14.41
2023-04-29T15:00:21.541Z,14.41
2023-04-29T15:02:55.865Z,14.45
2023-04-29T15:05:27.914Z,14.48
2023-04-29T15:08:01.538Z,14.57
2023-04-29T15:10:33.320Z,14.68
2023-04-29T15:13:06.139Z,14.79
2023-04-29T15:15:37.744Z,14.86
2023-04-29T15:18:09.700Z,14.89
2023-04-29T15:20:41.354Z,14.90
2023-04-29T15:23:12.992Z,14.95
2023-04-29T15:25:45.127Z,15.02
2023-04-29T15:28:16.931Z,15.08
2023-04-29T15:30:48.549Z,15.02
2023-04-29T15:33:20.224Z,14.96
2023-04-29T15:35:52.797Z,14.91
2023-04-29T15:38:24.519Z,14.84
2023-04-29T15:41:00.850Z,14.80
2023-04-29T15:43:33.364Z,14.75
2023-04-29T15:46:04.996Z,14.68
2023-04-29T15:48:37.136Z,14.62
2023-04-29T15:51:10.174Z,14.57
2023-04-29T15:53:43.816Z,14.49
2023-04-29T15:56:18.162Z,14.43
2023-04-29T15:58:49.728Z,14.37
2023-04-29T16:01:21.486Z,14.37
2023-04-29T16:03:53.317Z,14.38
2023-04-29T16:06:25.246Z,14.39
2023-04-29T16:08:56.912Z,14.39
2023-04-29T16:11:28.547Z,14.38
2023-04-29T16:14:00.194Z,14.34
2023-04-29T16:16:31.963Z,14.32
2023-04-29T16:19:03.660Z,14.28
2023-04-29T16:21:35.536Z,14.19
2023-04-29T16:24:07.995Z,14.14
2023-04-29T16:26:42.988Z,14.10
2023-04-29T16:29:14.642Z,14.07
2023-04-29T16:31:46.423Z,14.09
2023-04-29T16:34:18.286Z,14.13
2023-04-29T16:36:49.963Z,14.12
2023-04-29T16:39:21.673Z,14.10
2023-04-29T16:41:56.604Z,14.10
2023-04-29T16:44:28.385Z,14.07
2023-04-29T16:47:00.136Z,14.06
2023-04-29T16:49:32.001Z,14.03
2023-04-29T16:52:04.881Z,13.96
2023-04-29T16:54:36.525Z,13.92
2023-04-29T16:57:08.251Z,13.87
2023-04-29T16:59:39.871Z,13.83
2023-04-29T17:02:12.391Z,13.83
2023-04-29T17:04:44.138Z,13.84
2023-04-29T17:07:16.113Z,13.87
2023-04-29T17:09:47.914Z,13.86
2023-04-29T17:12:19.633Z,13.79
2023-04-29T17:14:51.692Z,13.75
2023-04-29T17:17:23.395Z,13.71
2023-04-29T17:19:55.788Z,13.67
2023-04-29T17:22:27.657Z,13.65
2023-04-29T17:24:59.339Z,13.60
2023-04-29T17:27:31.213Z,13.55
2023-04-29T17:30:03.420Z,13.55
2023-04-29T17:32:39.370Z,13.54
2023-04-29T17:35:11.810Z,13.52
2023-04-29T17:37:43.554Z,13.49
2023-04-29T17:40:15.117Z,13.48
2023-04-29T17:42:46.805Z,13.46
2023-04-29T17:45:18.521Z,13.42
2023-04-29T17:47:50.226Z,13.39
2023-04-29T17:50:21.876Z,13.36
2023-04-29T17:52:53.960Z,13.31
2023-04-29T17:55:25.982Z,13.25
2023-04-29T17:57:58.872Z,13.21
2023-04-29T18:00:30.866Z,13.17
2023-04-29T18:03:03.695Z,13.14
2023-04-29T18:05:35.574Z,13.07
2023-04-29T18:08:07.197Z,13.02
2023-04-29T18:10:38.740Z,12.98
2023-04-29T18:13:10.318Z,12.92
2023-04-29T18:15:42.117Z,12.87
2023-04-29T18:18:13.755Z,12.82
2023-04-29T18:20:45.629Z,12.80
2023-04-29T18:23:17.371Z,12.78
2023-04-29T18:25:49.061Z,12.75
2023-04-29T18:28:25.201Z,12.73
2023-04-29T18:30:57.265Z,12.64
2023-04-29T18:33:31.011Z,12.52
2023-04-29T18:36:03.144Z,12.43
2023-04-29T18:38:35.145Z,12.36
2023-04-29T18:41:06.824Z,12.31
2023-04-29T18:43:38.484Z,12.28
2023-04-29T18:46:10.126Z,12.21
2023-04-29T18:48:41.861Z,12.13
2023-04-29T18:51:13.509Z,12.06
2023-04-29T18:53:45.159Z,12.01
2023-04-29T18:56:17.149Z,11.95
2023-04-29T18:58:49.640Z,11.91
2023-04-29T19:01:21.210Z,11.88
2023-04-29T19:03:52.771Z,11.81
2023-04-29T19:06:24.344Z,11.74
2023-04-29T19:08:56.081Z,11.70
2023-04-29T19:11:27.930Z,11.66
2023-04-29T19:13:59.570Z,11.59
2023-04-29T19:16:31.233Z,11.54
2023-04-29T19:19:03.688Z,11.54
2023-04-29T19:21:35.897Z,11.54
2023-04-29T19:24:07.495Z,11.50
2023-04-29T19:26:40.288Z,11.42
2023-04-29T19:29:11.976Z,11.36
2023-04-29T19:31:44.060Z,11.32
2023-04-29T19:34:16.242Z,11.30
2023-04-29T19:36:47.863Z,11.29
2023-04-29T19:39:19.684Z,11.29
2023-04-29T19:41:51.736Z,11.28
2023-04-29T19:44:23.405Z,11.22
2023-04-29T19:46:55.523Z,11.15
2023-04-29T19:49:27.218Z,11.04
2023-04-29T19:51:58.812Z,10.99
2023-04-29T19:54:31.047Z,10.93
2023-04-29T19:57:03.153Z,10.86
2023-04-29T19:59:34.730Z,10.78
2023-04-29T20:02:07.604Z,10.73
2023-04-29T20:04:39.299Z,10.72
2023-04-29T20:07:10.906Z,10.69
2023-04-29T20:09:45.919Z,10.66
2023-04-29T20:12:17.491Z,10.63
2023-04-29T20:14:49.096Z,10.58
2023-04-29T20:17:20.783Z,10.49
2023-04-29T20:19:55.489Z,10.40
2023-04-29T20:22:29.601Z,10.32
2023-04-29T20:25:01.254Z,10.21
2023-04-29T20:27:33.081Z,10.11
2023-04-29T20:30:05.497Z,9.99
2023-04-29T20:32:39.514Z,9.88
2023-04-29T20:35:13.576Z,9.81
2023-04-29T20:37:46.043Z,9.72
2023-04-29T20:40:17.713Z,9.63
2023-04-29T20:42:49.385Z,9.54
2023-04-29T20:45:22.519Z,9.45
2023-04-29T20:47:54.576Z,9.36
2023-04-29T20:50:27.940Z,9.28
2023-04-29T20:52:59.586Z,9.22
2023-04-29T20:55:31.185Z,9.16
2023-04-29T20:58:02.728Z,9.10
2023-04-29T21:00:38.330Z,9.05
2023-04-29T21:03:10.458Z,8.98
2023-04-29T21:05:42.117Z,8.92
2023-04-29T21:08:14.196Z,8.86
2023-04-29T21:10:45.749Z,8.79
2023-04-29T21:13:17.942Z,8.71
2023-04-29T21:15:49.686Z,8.65
2023-04-29T21:18:22.593Z,8.61
2023-04-29T21:20:57.319Z,8.56
2023-04-29T21:23:29.169Z,8.50
2023-04-29T21:26:00.850Z,8.43
2023-04-29T21:28:32.710Z,8.36
2023-04-29T21:31:06.757Z,8.31
2023-04-29T21:33:39.898Z,8.25
2023-04-29T21:36:12.222Z,8.21
2023-04-29T21:38:43.906Z,8.15
2023-04-29T21:41:29.339Z,8.10
2023-04-29T21:44:02.271Z,8.05
2023-04-29T21:46:37.214Z,8.00
2023-04-29T21:49:09.769Z,7.96
2023-04-29T21:51:41.395Z,7.90
2023-04-29T21:54:13.002Z,7.86
2023-04-29T21:56:44.556Z,7.81
2023-04-29T21:59:17.542Z,7.78
2023-04-29T22:02:00.372Z,7.76
2023-04-29T22:04:32.120Z,7.71
2023-04-29T22:07:03.732Z,7.68
2023-04-29T22:09:35.386Z,7.65
2023-04-29T22:12:06.999Z,7.62
2023-04-29T22:20:21.358Z,7.54
2023-04-29T22:22:53.530Z,7.47
2023-04-29T22:25:25.747Z,7.44
2023-04-29T22:28:00.791Z,7.37
2023-04-29T22:30:32.487Z,7.33
2023-04-29T22:33:04.323Z,7.30
2023-04-29T22:35:36.100Z,7.27
2023-04-29T22:38:07.868Z,7.23
2023-04-29T22:40:39.510Z,7.19
2023-04-29T22:43:11.321Z,7.15
2023-04-29T22:45:43.067Z,7.11
2023-04-29T22:48:14.825Z,7.08
2023-04-29T22:50:58.782Z,7.04
2023-04-29T22:53:30.591Z,6.99
2023-04-29T22:56:02.349Z,6.94
2023-04-29T22:58:36.431Z,6.91
2023-04-29T23:01:10.578Z,6.86
2023-04-29T23:03:43.565Z,6.82
2023-04-29T23:06:15.201Z,6.79
2023-04-29T23:08:47.417Z,6.75
2023-04-29T23:11:19.647Z,6.71
2023-04-29T23:13:53.047Z,6.66
2023-04-29T23:16:24.830Z,6.61
2023-04-29T23:18:56.578Z,6.56
2023-04-29T23:21:28.320Z,6.52
2023-04-29T23:23:59.938Z,6.48
2023-04-29T23:26:31.742Z,6.44
2023-04-29T23:29:03.499Z,6.40
2023-04-29T23:31:35.110Z,6.36
2023-04-29T23:34:08.011Z,6.32
2023-04-29T23:36:39.570Z,6.29
2023-04-29T23:39:11.239Z,6.25
2023-04-29T23:41:42.908Z,6.22
2023-04-29T23:44:14.482Z,6.20
2023-04-29T23:46:46.514Z,6.15
2023-04-29T23:49:18.375Z,6.08
2023-04-29T23:51:50.027Z,6.04
2023-04-29T23:54:21.684Z,5.99
2023-04-29T23:56:53.436Z,5.94
2023-04-29T23:59:25.140Z,5.93
